createdAt,value
2022-11-29T00:01:54.009Z,93.40
2022-11-29T00:04:20.646Z,93.20
2022-11-29T00:06:46.989Z,93.30
2022-11-29T00:09:13.244Z,93.40
2022-11-29T00:11:58.677Z,93.40
2022-11-29T00:14:25.438Z,93.40
2022-11-29T00:16:54.930Z,93.50
2022-11-29T00:19:21.543Z,93.50
2022-11-29T00:21:48.928Z,93.50
2022-11-29T00:24:15.109Z,93.60
2022-11-29T00:26:41.990Z,93.60
2022-11-29T00:29:09.644Z,93.60
2022-11-29T00:31:36.278Z,93.60
2022-11-29T00:34:03.902Z,93.70
2022-11-29T00:36:30.533Z,93.70
2022-11-29T00:38:56.729Z,93.80
2022-11-29T00:41:23.140Z,93.90
2022-11-29T00:43:49.301Z,93.90
2022-11-29T00:46:15.750Z,93.90
2022-11-29T00:48:41.988Z,94.30
2022-11-29T00:51:08.558Z,93.90
2022-11-29T00:53:34.782Z,94.40
2022-11-29T00:56:01.185Z,94.10
2022-11-29T00:58:27.846Z,94.30
2022-11-29T01:00:55.355Z,94.40
2022-11-29T01:03:21.725Z,94.70
2022-11-29T01:05:48.044Z,94.90
2022-11-29T01:08:14.965Z,95.20
2022-11-29T01:10:41.306Z,95.00
2022-11-29T01:13:07.876Z,94.80
2022-11-29T01:15:34.420Z,94.70
2022-11-29T01:18:00.585Z,94.80
2022-11-29T01:20:27.181Z,94.60
2022-11-29T01:22:53.482Z,94.60
2022-11-29T01:25:20.687Z,94.40
2022-11-29T01:27:46.934Z,94.40
2022-11-29T01:30:14.717Z,94.40
2022-11-29T01:32:41.373Z,94.30
2022-11-29T01:35:09.153Z,94.30
2022-11-29T01:37:35.479Z,94.20
2022-11-29T01:40:01.909Z,94.20
2022-11-29T01:42:28.332Z,94.30
2022-11-29T01:46:47.474Z,94.20
2022-11-29T01:49:27.753Z,94.10
2022-11-29T01:52:27.724Z,93.90
2022-11-29T01:54:59.461Z,93.90
2022-11-29T01:57:26.176Z,93.90
2022-11-29T01:59:55.203Z,93.90
2022-11-29T02:02:37.882Z,94.00
2022-11-29T02:05:05.365Z,93.80
2022-11-29T02:07:31.612Z,93.80
2022-11-29T02:09:59.039Z,93.70
2022-11-29T02:12:59.714Z,93.60
2022-11-29T02:17:15.139Z,93.50
2022-11-29T02:22:55.639Z,93.50
2022-11-29T02:25:48.713Z,93.40
2022-11-29T02:29:22.858Z,93.50
2022-11-29T02:35:47.526Z,93.50
2022-11-29T02:38:38.424Z,93.60
2022-11-29T02:47:14.158Z,93.50
2022-11-29T02:52:36.498Z,93.70
2022-11-29T02:55:33.933Z,93.80
2022-11-29T02:59:44.428Z,93.60
2022-11-29T03:02:39.345Z,93.40
2022-11-29T03:08:01.282Z,93.50
2022-11-29T03:11:01.272Z,93.50
2022-11-29T03:16:53.204Z,93.50
2022-11-29T03:22:15.655Z,93.40
2022-11-29T03:25:52.946Z,93.40
2022-11-29T03:30:13.885Z,93.20
2022-11-29T03:33:06.548Z,93.20
2022-11-29T03:36:44.790Z,93.70
2022-11-29T03:39:17.323Z,93.00
2022-11-29T03:41:53.073Z,92.90
2022-11-29T03:47:52.337Z,92.90
2022-11-29T03:51:27.097Z,92.80
2022-11-29T03:54:13.543Z,92.70
2022-11-29T03:56:41.310Z,92.70
2022-11-29T04:02:45.386Z,92.60
2022-11-29T04:07:06.595Z,92.60
2022-11-29T04:16:33.659Z,92.60
2022-11-29T04:19:22.368Z,92.60
2022-11-29T04:25:18.649Z,92.50
2022-11-29T04:29:27.012Z,92.30
2022-11-29T04:34:11.391Z,92.10
2022-11-29T04:36:48.659Z,92.20
2022-11-29T04:39:48.051Z,92.40
2022-11-29T04:48:51.827Z,92.70
2022-11-29T04:55:50.683Z,92.30
2022-11-29T04:59:21.426Z,92.20
2022-11-29T05:05:27.644Z,92.30
2022-11-29T05:15:02.806Z,92.20
2022-11-29T05:18:47.875Z,92.40
2022-11-29T05:21:19.574Z,92.50
2022-11-29T05:24:09.608Z,92.90
2022-11-29T05:26:51.964Z,92.50
2022-11-29T05:29:50.704Z,92.40
2022-11-29T05:33:05.774Z,92.60
2022-11-29T05:35:53.610Z,92.90
2022-11-29T05:39:35.158Z,92.50
2022-11-29T05:43:50.714Z,92.50
2022-11-29T05:46:31.095Z,92.60
2022-11-29T05:50:20.668Z,92.60
2022-11-29T05:53:28.637Z,92.50
2022-11-29T05:56:25.083Z,92.40
2022-11-29T05:58:58.078Z,92.20
2022-11-29T06:05:46.099Z,92.20
2022-11-29T06:08:38.962Z,92.70
2022-11-29T06:11:57.103Z,92.10
2022-11-29T06:17:06.368Z,92.10
2022-11-29T06:19:57.343Z,91.90
2022-11-29T06:23:29.821Z,92.40
2022-11-29T06:27:03.358Z,91.90
2022-11-29T06:29:44.511Z,91.90
2022-11-29T06:32:46.578Z,91.80
2022-11-29T06:37:00.366Z,91.90
2022-11-29T06:39:28.340Z,91.90
2022-11-29T06:41:56.911Z,91.70
2022-11-29T06:44:26.524Z,91.70
2022-11-29T06:48:39.183Z,91.60
2022-11-29T06:51:37.519Z,91.70
2022-11-29T06:56:19.956Z,91.80
2022-11-29T06:58:58.139Z,91.50
2022-11-29T07:01:52.252Z,91.50
2022-11-29T07:06:06.157Z,91.90
2022-11-29T07:08:35.620Z,91.60
2022-11-29T07:11:03.282Z,91.50
2022-11-29T07:13:30.830Z,91.60
2022-11-29T07:19:12.213Z,91.50
2022-11-29T07:21:58.337Z,91.20
2022-11-29T07:32:50.040Z,91.30
2022-11-29T07:35:41.163Z,91.20
2022-11-29T07:38:28.290Z,91.20
2022-11-29T07:47:35.971Z,91.20
2022-11-29T07:50:03.955Z,91.00
2022-11-29T07:52:31.311Z,91.20
2022-11-29T07:54:58.195Z,90.70
2022-11-29T07:57:24.420Z,90.70
2022-11-29T07:59:51.268Z,91.00
2022-11-29T08:02:29.944Z,90.50
2022-11-29T08:04:56.441Z,90.90
2022-11-29T08:07:23.950Z,90.80
2022-11-29T08:09:50.330Z,90.80
2022-11-29T08:12:16.613Z,90.70
2022-11-29T08:14:43.238Z,90.30
2022-11-29T08:17:11.029Z,90.40
2022-11-29T08:19:37.165Z,90.30
2022-11-29T08:22:03.606Z,90.00
2022-11-29T08:24:29.825Z,90.20
2022-11-29T08:26:57.330Z,90.00
2022-11-29T08:29:24.609Z,89.40
2022-11-29T08:31:53.101Z,89.60
2022-11-29T08:34:21.315Z,90.00
2022-11-29T08:36:47.952Z,89.90
2022-11-29T08:39:14.859Z,90.00
2022-11-29T08:41:41.300Z,89.80
2022-11-29T08:44:07.622Z,90.00
2022-11-29T08:46:52.593Z,90.10
2022-11-29T08:49:20.249Z,90.00
2022-11-29T08:51:46.463Z,89.40
2022-11-29T08:54:13.215Z,90.10
2022-11-29T08:59:35.765Z,89.50
2022-11-29T09:02:03.620Z,89.90
2022-11-29T09:04:30.174Z,89.10
2022-11-29T09:06:57.134Z,89.10
2022-11-29T09:09:25.710Z,88.00
2022-11-29T09:11:52.668Z,87.80
2022-11-29T09:14:21.633Z,87.80
2022-11-29T09:16:48.318Z,87.90
2022-11-29T09:19:15.825Z,87.40
2022-11-29T09:21:42.144Z,87.20
2022-11-29T09:24:09.636Z,88.00
2022-11-29T09:26:38.326Z,87.00
2022-11-29T09:29:06.177Z,87.30
2022-11-29T09:31:35.746Z,87.00
2022-11-29T09:34:02.518Z,87.30
2022-11-29T09:36:29.546Z,87.60
2022-11-29T09:38:57.443Z,87.30
2022-11-29T09:42:59.095Z,87.80
2022-11-29T09:45:31.838Z,87.40
2022-11-29T09:51:15.435Z,87.60
2022-11-29T09:54:15.427Z,87.80
2022-11-29T09:56:47.123Z,87.50
2022-11-29T09:59:24.930Z,87.00
2022-11-29T10:01:58.711Z,86.90
2022-11-29T10:04:29.116Z,87.80
2022-11-29T10:07:19.000Z,87.40
2022-11-29T10:09:59.683Z,86.80
2022-11-29T10:12:38.730Z,86.80
2022-11-29T10:15:22.963Z,86.80
2022-11-29T10:18:03.955Z,86.50
2022-11-29T10:20:40.637Z,86.90
2022-11-29T10:23:43.681Z,86.30
2022-11-29T10:26:11.925Z,85.90
2022-11-29T10:28:44.435Z,86.10
2022-11-29T10:33:05.768Z,86.60
2022-11-29T10:35:33.226Z,85.70
2022-11-29T10:38:30.222Z,85.00
2022-11-29T10:41:04.801Z,85.20
2022-11-29T10:43:32.150Z,86.10
2022-11-29T10:45:59.796Z,84.60
2022-11-29T10:48:31.074Z,83.90
2022-11-29T10:50:58.764Z,84.00
2022-11-29T10:53:30.678Z,85.00
2022-11-29T10:56:07.373Z,84.40
2022-11-29T10:58:37.706Z,84.10
2022-11-29T11:01:07.549Z,83.40
2022-11-29T11:19:34.568Z,82.10
2022-11-29T11:22:01.659Z,83.10
2022-11-29T11:24:39.688Z,83.40
2022-11-29T11:27:06.127Z,83.60
2022-11-29T11:29:42.382Z,83.80
2022-11-29T11:32:16.720Z,83.40
2022-11-29T11:34:54.336Z,85.20
2022-11-29T11:37:29.597Z,84.00
2022-11-29T11:40:29.224Z,83.60
2022-11-29T11:42:57.338Z,84.00
2022-11-29T11:45:56.874Z,83.70
2022-11-29T11:48:23.620Z,83.50
2022-11-29T11:50:56.475Z,83.40
2022-11-29T11:53:36.701Z,83.40
2022-11-29T11:56:08.766Z,83.80
2022-11-29T11:59:00.396Z,84.00
2022-11-29T12:01:39.723Z,83.10
2022-11-29T12:04:18.669Z,83.90
2022-11-29T12:07:12.741Z,82.50
2022-11-29T12:09:45.337Z,82.60
2022-11-29T12:12:38.960Z,83.40
2022-11-29T12:15:24.068Z,83.20
2022-11-29T12:19:23.120Z,83.70
2022-11-29T12:21:51.962Z,83.40
2022-11-29T12:24:26.980Z,83.70
2022-11-29T12:26:57.529Z,83.60
2022-11-29T12:29:25.328Z,83.20
2022-11-29T12:34:43.396Z,84.90
2022-11-29T12:38:16.715Z,84.10
2022-11-29T12:44:09.394Z,83.60
2022-11-29T12:46:37.673Z,83.30
2022-11-29T12:49:43.664Z,83.80
2022-11-29T12:52:22.078Z,83.60
2022-11-29T12:55:16.217Z,83.40
2022-11-29T13:01:17.125Z,82.90
2022-11-29T13:08:55.247Z,82.50
2022-11-29T13:11:33.026Z,83.20
2022-11-29T13:21:32.358Z,83.30
2022-11-29T13:24:13.779Z,84.50
2022-11-29T13:26:42.596Z,83.90
2022-11-29T13:29:14.355Z,84.10
2022-11-29T13:31:40.638Z,84.20
2022-11-29T13:34:32.305Z,84.70
2022-11-29T13:37:19.554Z,84.60
2022-11-29T13:40:51.864Z,84.50
2022-11-29T13:44:51.365Z,85.10
2022-11-29T13:47:19.088Z,85.00
2022-11-29T13:50:04.866Z,85.60
2022-11-29T13:52:46.122Z,85.50
2022-11-29T13:55:21.217Z,85.00
2022-11-29T13:58:19.917Z,84.90
2022-11-29T14:00:50.038Z,85.30
2022-11-29T14:03:28.343Z,86.30
2022-11-29T14:06:11.576Z,87.70
2022-11-29T14:09:28.060Z,88.20
2022-11-29T14:12:18.361Z,88.80
2022-11-29T14:14:59.633Z,89.10
2022-11-29T14:17:52.516Z,89.50
2022-11-29T14:20:55.724Z,89.60
2022-11-29T14:23:39.814Z,89.80
2022-11-29T14:26:28.901Z,90.00
2022-11-29T14:28:55.345Z,90.10
2022-11-29T14:31:47.797Z,90.40
2022-11-29T14:34:15.150Z,90.70
2022-11-29T14:36:59.143Z,90.40
2022-11-29T14:39:47.505Z,90.10
2022-11-29T14:42:21.629Z,90.00
2022-11-29T14:45:00.445Z,90.10
2022-11-29T14:47:34.456Z,90.20
2022-11-29T14:50:03.911Z,90.40
2022-11-29T14:52:37.842Z,90.30
2022-11-29T14:56:56.581Z,90.40
2022-11-29T14:59:50.531Z,90.70
2022-11-29T15:02:41.873Z,90.80
2022-11-29T15:06:17.661Z,90.70
2022-11-29T15:09:05.153Z,90.80
2022-11-29T15:11:56.799Z,90.70
2022-11-29T15:17:03.859Z,90.80
2022-11-29T15:21:40.920Z,90.90
2022-11-29T15:24:12.941Z,90.70
2022-11-29T15:26:54.157Z,90.70
2022-11-29T15:29:21.177Z,90.70
2022-11-29T15:31:57.341Z,90.90
2022-11-29T15:34:59.036Z,90.90
2022-11-29T15:37:58.923Z,91.00
2022-11-29T15:40:34.805Z,91.40
2022-11-29T15:43:22.008Z,91.20
2022-11-29T15:45:54.266Z,91.00
2022-11-29T15:48:28.163Z,91.00
2022-11-29T15:51:42.253Z,91.10
2022-11-29T15:54:38.659Z,91.00
2022-11-29T15:57:31.722Z,91.00
2022-11-29T16:00:04.368Z,91.00
2022-11-29T16:02:34.829Z,91.20
2022-11-29T16:05:36.407Z,91.10
2022-11-29T16:08:20.877Z,91.20
2022-11-29T16:10:52.652Z,91.20
2022-11-29T16:16:15.337Z,91.30
2022-11-29T16:18:43.424Z,91.20
2022-11-29T16:23:12.237Z,91.30
2022-11-29T16:26:39.492Z,91.40
2022-11-29T16:29:26.423Z,91.40
2022-11-29T16:31:52.673Z,91.30
2022-11-29T16:34:31.516Z,91.50
2022-11-29T16:37:02.170Z,91.40
2022-11-29T16:39:28.629Z,91.50
2022-11-29T16:42:28.044Z,91.50
2022-11-29T16:45:41.650Z,91.50
2022-11-29T16:48:28.218Z,91.40
2022-11-29T16:51:55.164Z,91.30
2022-11-29T16:54:33.845Z,91.20
2022-11-29T16:57:05.608Z,91.60
2022-11-29T16:59:32.648Z,91.50
2022-11-29T17:01:59.062Z,91.50
2022-11-29T17:04:25.557Z,91.40
2022-11-29T17:07:04.331Z,91.40
2022-11-29T17:09:31.229Z,91.60
2022-11-29T17:12:01.049Z,91.70
2022-11-29T17:14:31.136Z,91.80
2022-11-29T17:16:59.973Z,91.90
2022-11-29T17:19:28.392Z,92.00
2022-11-29T17:21:54.902Z,92.20
2022-11-29T17:24:32.101Z,92.20
2022-11-29T17:26:58.888Z,92.20
2022-11-29T17:29:25.265Z,92.20
2022-11-29T17:31:52.662Z,92.10
2022-11-29T17:34:19.383Z,92.10
2022-11-29T17:36:45.982Z,92.10
2022-11-29T17:39:12.904Z,92.20
2022-11-29T17:41:39.485Z,92.30
2022-11-29T17:44:06.187Z,92.40
2022-11-29T17:46:34.344Z,92.40
2022-11-29T17:49:03.093Z,92.40
2022-11-29T17:54:26.492Z,92.40
2022-11-29T17:56:54.005Z,92.80
2022-11-29T17:59:20.616Z,92.50
2022-11-29T18:01:47.404Z,92.50
2022-11-29T18:04:13.916Z,92.40
2022-11-29T18:06:40.455Z,92.50
2022-11-29T18:09:08.275Z,92.40
2022-11-29T18:11:46.840Z,93.20
2022-11-29T18:14:27.359Z,92.40
2022-11-29T18:16:53.690Z,92.30
2022-11-29T18:19:21.032Z,92.20
2022-11-29T18:21:48.260Z,92.10
2022-11-29T18:24:14.947Z,92.20
2022-11-29T18:26:41.300Z,92.30
2022-11-29T18:29:08.351Z,92.60
2022-11-29T18:31:37.114Z,92.60
2022-11-29T18:34:08.824Z,92.70
2022-11-29T18:36:37.042Z,92.70
2022-11-29T18:39:11.382Z,92.60
2022-11-29T18:41:38.550Z,92.50
2022-11-29T18:44:09.683Z,92.10
2022-11-29T18:46:39.362Z,92.10
2022-11-29T18:49:07.983Z,92.00
2022-11-29T18:51:35.733Z,91.80
2022-11-29T18:54:03.599Z,91.80
2022-11-29T18:56:32.015Z,91.70
2022-11-29T18:59:11.141Z,91.80
2022-11-29T19:01:41.982Z,91.90
2022-11-29T19:04:16.919Z,92.00
2022-11-29T19:06:43.861Z,92.20
2022-11-29T19:09:16.481Z,92.30
2022-11-29T19:11:45.750Z,92.50
2022-11-29T19:14:13.756Z,92.70
2022-11-29T19:16:43.013Z,92.90
2022-11-29T19:19:09.493Z,93.20
2022-11-29T19:21:38.582Z,93.40
2022-11-29T19:24:13.553Z,93.70
2022-11-29T19:26:40.244Z,93.80
2022-11-29T19:29:09.098Z,93.90
2022-11-29T19:31:39.093Z,94.10
2022-11-29T19:34:07.521Z,94.20
2022-11-29T19:36:36.779Z,94.20
2022-11-29T19:39:03.272Z,94.30
2022-11-29T19:41:32.668Z,94.40
2022-11-29T19:44:05.328Z,94.30
2022-11-29T19:46:40.029Z,94.40
2022-11-29T19:49:06.550Z,94.60
2022-11-29T19:51:33.551Z,94.80
2022-11-29T19:54:04.389Z,94.70
2022-11-29T19:56:33.164Z,94.90
2022-11-29T19:59:00.021Z,95.00
2022-11-29T20:01:36.103Z,95.00
2022-11-29T20:04:09.674Z,95.20
2022-11-29T20:06:36.718Z,95.30
2022-11-29T20:09:04.094Z,95.40
2022-11-29T20:11:31.207Z,95.40
2022-11-29T20:14:01.952Z,95.40
2022-11-29T20:16:29.582Z,95.40
2022-11-29T20:18:56.248Z,95.50
2022-11-29T20:21:28.557Z,95.50
2022-11-29T20:24:03.026Z,95.60
2022-11-29T20:26:31.025Z,95.60
2022-11-29T20:29:02.195Z,95.80
2022-11-29T20:31:31.182Z,95.50
2022-11-29T20:33:59.250Z,95.60
2022-11-29T20:36:47.170Z,95.60
2022-11-29T20:39:30.755Z,95.60
2022-11-29T20:42:31.559Z,95.60
2022-11-29T20:45:00.410Z,95.60
2022-11-29T20:47:51.225Z,95.80
2022-11-29T20:50:54.201Z,95.80
2022-11-29T20:55:12.664Z,95.90
2022-11-29T20:57:38.820Z,96.00
2022-11-29T21:00:08.355Z,96.10
2022-11-29T21:02:34.543Z,96.20
2022-11-29T21:05:03.560Z,96.30
2022-11-29T21:07:30.927Z,96.30
2022-11-29T21:10:01.522Z,96.40
2022-11-29T21:12:29.664Z,96.40
2022-11-29T21:14:57.215Z,96.50
2022-11-29T21:17:33.664Z,96.60
2022-11-29T21:20:02.754Z,96.70
2022-11-29T21:22:55.786Z,96.70
2022-11-29T21:26:10.946Z,96.80
2022-11-29T21:28:51.250Z,96.80
2022-11-29T21:31:18.557Z,96.90
2022-11-29T21:33:48.340Z,96.90
2022-11-29T21:36:15.398Z,96.80
2022-11-29T21:38:42.135Z,96.90
2022-11-29T21:41:08.823Z,97.00
2022-11-29T21:44:05.078Z,97.10
2022-11-29T21:46:32.945Z,97.00
2022-11-29T21:48:59.734Z,97.10
2022-11-29T21:51:27.840Z,97.00
2022-11-29T21:53:55.745Z,97.00
2022-11-29T21:56:22.581Z,97.30
2022-11-29T21:58:49.129Z,97.30
2022-11-29T22:01:17.369Z,97.30
2022-11-29T22:03:44.704Z,97.40
2022-11-29T22:06:13.764Z,97.20
2022-11-29T22:08:42.564Z,97.10
2022-11-29T22:11:14.601Z,97.10
2022-11-29T22:14:01.336Z,97.00
2022-11-29T22:16:28.767Z,97.10
2022-11-29T22:18:56.029Z,97.10
2022-11-29T22:21:24.033Z,97.00
2022-11-29T22:23:52.573Z,97.00
2022-11-29T22:26:20.689Z,97.00
2022-11-29T22:28:48.676Z,97.00
2022-11-29T22:31:15.713Z,97.00
2022-11-29T22:33:42.979Z,97.00
2022-11-29T22:36:10.963Z,97.00
2022-11-29T22:38:38.397Z,96.90
2022-11-29T22:41:06.587Z,97.00
2022-11-29T22:43:33.911Z,96.90
2022-11-29T22:46:08.291Z,96.90
2022-11-29T22:48:38.665Z,97.00
2022-11-29T22:51:16.349Z,96.90
2022-11-29T22:53:48.759Z,96.80
2022-11-29T22:56:15.094Z,97.00
2022-11-29T22:58:41.451Z,96.90
2022-11-29T23:01:15.311Z,96.90
2022-11-29T23:03:43.428Z,96.90
2022-11-29T23:06:15.403Z,96.90
2022-11-29T23:08:42.646Z,96.80
2022-11-29T23:11:12.911Z,96.80
2022-11-29T23:13:41.313Z,96.70
2022-11-29T23:16:09.726Z,96.70
2022-11-29T23:18:36.012Z,96.80
2022-11-29T23:21:22.221Z,96.80
2022-11-29T23:23:54.520Z,96.80
2022-11-29T23:26:35.804Z,96.80
2022-11-29T23:29:03.215Z,96.70
2022-11-29T23:31:29.794Z,96.60
2022-11-29T23:33:56.915Z,96.70
2022-11-29T23:36:23.658Z,96.80
2022-11-29T23:38:50.182Z,97.00
2022-11-29T23:41:16.827Z,96.50
2022-11-29T23:43:45.601Z,96.50
2022-11-29T23:46:16.906Z,96.50
2022-11-29T23:48:43.485Z,96.40
2022-11-29T23:51:11.189Z,96.60
2022-11-29T23:53:39.413Z,96.50
2022-11-29T23:56:09.152Z,96.50
2022-11-29T23:58:35.658Z,96.40
